Time,TemperatureF,DewpointF,PressureIn,WindDirection,WindDirectionDegrees,WindSpeedMPH,WindSpeedGustMPH,Humidity,HourlyPrecipIn,Conditions,Clouds,dailyrainin,SoftwareType,DateUTC
2013-08-17 04:31:00,59.0,58.0,29.97,ENE,70,0.0,-999.0,96,-99.99,,,0.00,weatherlink.com 1.10,2013-08-17 11:31:00,
2013-08-17 04:36:00,59.0,58.0,29.96,ENE,70,0.0,-999.0,96,-99.99,,,0.00,weatherlink.com 1.10,2013-08-17 11:36:00,
2013-08-17 04:57:00,59.2,58.0,29.96,ENE,70,0.0,-999.0,96,-99.99,,,0.00,weatherlink.com 1.10,2013-08-17 11:57:00,
2013-08-17 05:06:00,58.4,57.0,29.96,ENE,70,0.0,-999.0,95,-99.99,,,0.00,weatherlink.com 1.10,2013-08-17 12:06:00,
2013-08-17 05:21:00,58.0,57.0,29.97,ENE,70,0.0,-999.0,96,-99.99,,,0.00,weatherlink.com 1.10,2013-08-17 12:21:00,
2013-08-17 05:36:00,58.0,57.0,29.97,ENE,70,0.0,-999.0,96,-99.99,,,0.00,weatherlink.com 1.10,2013-08-17 12:36:00,
2013-08-17 05:57:00,57.8,57.0,29.98,ENE,70,0.0,-999.0,96,-99.99,,,0.00,weatherlink.com 1.10,2013-08-17 12:57:00,
2013-08-17 06:06:00,57.6,57.0,29.97,ENE,70,0.0,-999.0,96,-99.99,,,0.00,weatherlink.com 1.10,2013-08-17 13:06:00,
2013-08-17 06:21:00,58.3,58.0,29.98,ENE,70,0.0,-999.0,97,-99.99,,,0.00,weatherlink.com 1.10,2013-08-17 13:21:00,
2013-08-17 06:36:00,59.0,58.0,29.98,ENE,70,0.0,-999.0,97,-99.99,,,0.00,weatherlink.com 1.10,2013-08-17 13:36:00,
2013-08-17 06:57:00,59.5,59.0,29.98,ENE,70,0.0,-999.0,97,-99.99,,,0.00,weatherlink.com 1.10,2013-08-17 13:57:00,
2013-08-17 07:06:00,58.7,57.0,29.99,ENE,70,2.0,-999.0,95,-99.99,,,0.00,weatherlink.com 1.10,2013-08-17 14:06:00,
2013-08-17 07:21:00,57.1,56.0,30.00,ENE,70,0.0,-999.0,96,-99.99,,,0.00,weatherlink.com 1.10,2013-08-17 14:21:00,
2013-08-17 07:36:00,57.8,57.0,29.99,ENE,70,0.0,-999.0,97,-99.99,,,0.00,weatherlink.com 1.10,2013-08-17 14:36:00,
2013-08-17 07:57:00,58.0,57.0,30.00,ENE,70,0.0,-999.0,97,-99.99,,,0.00,weatherlink.com 1.10,2013-08-17 14:57:00,
2013-08-17 08:06:00,58.4,58.0,30.00,ENE,70,0.0,-999.0,97,-99.99,,,0.00,weatherlink.com 1.10,2013-08-17 15:06:00,
2013-08-17 08:21:00,58.6,58.0,30.00,WSW,247,0.0,-999.0,98,-99.99,,,0.00,weatherlink.com 1.10,2013-08-17 15:21:00,
2013-08-17 08:36:00,58.9,58.0,30.00,South,177,1.0,-999.0,97,-99.99,,,0.00,weatherlink.com 1.10,2013-08-17 15:36:00,
2013-08-17 09:01:00,59.5,59.0,30.01,SSE,165,0.0,-999.0,98,-99.99,,,0.00,weatherlink.com 1.10,2013-08-17 16:01:00,
2013-08-17 09:06:00,61.6,61.0,30.01,NW,325,0.0,-999.0,98,-99.99,,,0.00,weatherlink.com 1.10,2013-08-17 16:06:00,
2013-08-17 09:21:00,62.3,61.0,30.02,East,95,3.0,-999.0,95,-99.99,,,0.00,weatherlink.com 1.10,2013-08-17 16:21:00,
2013-08-17 09:36:00,62.5,61.0,30.02,NE,51,0.0,-999.0,93,-99.99,,,0.00,weatherlink.com 1.10,2013-08-17 16:36:00,
2013-08-17 09:57:00,62.9,61.0,30.03,South,174,0.0,-999.0,92,-99.99,,,0.00,weatherlink.com 1.10,2013-08-17 16:57:00,
2013-08-17 10:06:00,63.2,61.0,30.03,WNW,284,0.0,-999.0,92,-99.99,,,0.00,weatherlink.com 1.10,2013-08-17 17:06:00,
2013-08-17 10:21:00,63.5,61.0,30.03,NNW,334,1.0,-999.0,91,-99.99,,,0.00,weatherlink.com 1.10,2013-08-17 17:21:00,
2013-08-17 10:36:00,64.1,62.0,30.03,North,355,4.0,-999.0,91,-99.99,,,0.00,weatherlink.com 1.10,2013-08-17 17:36:00,
2013-08-17 10:57:00,64.6,61.0,30.04,NNE,22,2.0,-999.0,87,-99.99,,,0.00,weatherlink.com 1.10,2013-08-17 17:57:00,
2013-08-17 11:06:00,63.9,60.0,30.04,North,355,1.0,-999.0,88,-99.99,,,0.00,weatherlink.com 1.10,2013-08-17 18:06:00,
2013-08-17 11:37:00,63.4,60.0,30.05,North,5,5.0,-999.0,88,-99.99,,,0.00,weatherlink.com 1.10,2013-08-17 18:37:00,
2013-08-17 11:58:00,63.4,60.0,30.05,North,355,6.0,-999.0,88,-99.99,,,0.00,weatherlink.com 1.10,2013-08-17 18:58:00,
2013-08-17 12:07:00,62.6,60.0,30.05,North,10,5.0,-999.0,91,-99.99,,,0.00,weatherlink.com 1.10,2013-08-17 19:07:00,
2013-08-17 12:22:00,62.7,60.0,30.05,NW,326,0.0,-999.0,92,-99.99,,,0.00,weatherlink.com 1.10,2013-08-17 19:22:00,
2013-08-17 12:37:00,60.6,58.0,30.06,SSE,167,3.0,-999.0,90,-99.99,,,0.00,weatherlink.com 1.10,2013-08-17 19:37:00,
2013-08-17 12:58:00,60.5,58.0,30.06,SSE,167,1.0,-999.0,92,-99.99,,,0.00,weatherlink.com 1.10,2013-08-17 19:58:00,
2013-08-17 13:07:00,62.0,60.0,30.06,North,5,5.0,-999.0,92,-99.99,,,0.00,weatherlink.com 1.10,2013-08-17 20:07:00,
2013-08-17 13:22:00,59.9,57.0,30.06,SE,135,2.0,-999.0,90,-99.99,,,0.00,weatherlink.com 1.10,2013-08-17 20:22:00,
2013-08-17 13:37:00,59.7,57.0,30.06,SE,144,5.0,-999.0,91,-99.99,,,0.00,weatherlink.com 1.10,2013-08-17 20:37:00,
2013-08-17 13:57:00,59.0,57.0,30.06,SSE,157,3.0,-999.0,93,-99.99,,,0.00,weatherlink.com 1.10,2013-08-17 20:57:00,
2013-08-17 14:06:00,59.0,57.0,30.07,SSE,157,3.0,-999.0,93,-99.99,,,0.00,weatherlink.com 1.10,2013-08-17 21:06:00,
2013-08-17 14:21:00,59.7,58.0,30.07,SSE,153,2.0,-999.0,93,-99.99,,,0.00,weatherlink.com 1.10,2013-08-17 21:21:00,
2013-08-17 14:36:00,59.5,57.0,30.07,SSE,161,0.0,-999.0,92,-99.99,,,0.00,weatherlink.com 1.10,2013-08-17 21:36:00,
2013-08-17 15:00:00,60.1,58.0,30.07,SSE,161,1.0,-999.0,92,-99.99,,,0.00,weatherlink.com 1.10,2013-08-17 22:00:00,
2013-08-17 15:07:00,60.5,58.0,30.06,SSE,160,0.0,-999.0,92,-99.99,,,0.00,weatherlink.com 1.10,2013-08-17 22:07:00,
2013-08-17 15:22:00,61.3,59.0,30.06,NE,49,0.0,-999.0,91,-99.99,,,0.00,weatherlink.com 1.10,2013-08-17 22:22:00,
2013-08-17 15:37:00,62.3,59.0,30.05,NNE,17,0.0,-999.0,89,-99.99,,,0.00,weatherlink.com 1.10,2013-08-17 22:37:00,
2013-08-17 15:57:00,61.9,59.0,30.05,SE,132,2.0,-999.0,90,-99.99,,,0.00,weatherlink.com 1.10,2013-08-17 22:57:00,
2013-08-17 16:06:00,62.1,59.0,30.05,ESE,116,0.0,-999.0,90,-99.99,,,0.00,weatherlink.com 1.10,2013-08-17 23:06:00,
2013-08-17 16:21:00,63.5,60.0,30.05,West,268,0.0,-999.0,89,-99.99,,,0.00,weatherlink.com 1.10,2013-08-17 23:21:00,
2013-08-17 16:36:00,63.9,60.0,30.05,NNE,16,0.0,-999.0,88,-99.99,,,0.00,weatherlink.com 1.10,2013-08-17 23:36:00,
2013-08-17 16:57:00,64.1,60.0,30.05,NW,309,0.0,-999.0,87,-99.99,,,0.00,weatherlink.com 1.10,2013-08-17 23:57:00,
2013-08-17 17:06:00,65.0,60.0,30.04,NNW,345,0.0,-999.0,85,-99.99,,,0.00,weatherlink.com 1.10,2013-08-18 00:06:00,
2013-08-17 17:21:00,66.3,60.0,30.04,SE,126,4.0,-999.0,81,-99.99,,,0.00,weatherlink.com 1.10,2013-08-18 00:21:00,
2013-08-17 17:36:00,64.6,60.0,30.04,NW,305,0.0,-999.0,84,-99.99,,,0.00,weatherlink.com 1.10,2013-08-18 00:36:00,
2013-08-17 17:58:00,64.5,59.0,30.04,NNE,13,4.0,-999.0,83,-99.99,,,0.00,weatherlink.com 1.10,2013-08-18 00:58:00,
2013-08-17 18:07:00,59.4,56.0,30.04,SSE,148,5.0,-999.0,89,-99.99,,,0.00,weatherlink.com 1.10,2013-08-18 01:07:00,
2013-08-17 18:22:00,58.5,56.0,30.04,East,98,0.0,-999.0,91,-99.99,,,0.00,weatherlink.com 1.10,2013-08-18 01:22:00,
2013-08-17 18:37:00,58.0,56.0,30.04,East,101,0.0,-999.0,92,-99.99,,,0.00,weatherlink.com 1.10,2013-08-18 01:37:00,
2013-08-17 18:57:00,57.1,55.0,30.04,ESE,103,0.0,-999.0,92,-99.99,,,0.00,weatherlink.com 1.10,2013-08-18 01:57:00,
2013-08-17 19:06:00,56.8,55.0,30.04,ESE,103,0.0,-999.0,94,-99.99,,,0.00,weatherlink.com 1.10,2013-08-18 02:06:00,
2013-08-17 19:21:00,56.6,55.0,30.04,ESE,103,0.0,-999.0,94,-99.99,,,0.00,weatherlink.com 1.10,2013-08-18 02:21:00,
2013-08-17 19:36:00,56.8,55.0,30.04,ESE,103,0.0,-999.0,95,-99.99,,,0.00,weatherlink.com 1.10,2013-08-18 02:36:00,
2013-08-17 19:59:00,56.6,55.0,30.05,ESE,103,0.0,-999.0,94,-99.99,,,0.00,weatherlink.com 1.10,2013-08-18 02:59:00,
2013-08-17 20:07:00,56.3,55.0,30.04,ESE,103,0.0,-999.0,95,-99.99,,,0.00,weatherlink.com 1.10,2013-08-18 03:07:00,
2013-08-17 20:22:00,56.5,55.0,30.04,ESE,103,0.0,-999.0,95,-99.99,,,0.00,weatherlink.com 1.10,2013-08-18 03:22:00,
2013-08-17 20:37:00,56.4,55.0,30.05,ESE,103,0.0,-999.0,94,-99.99,,,0.00,weatherlink.com 1.10,2013-08-18 03:37:00,
2013-08-17 20:57:00,55.7,54.0,30.05,ESE,103,0.0,-999.0,95,-99.99,,,0.00,weatherlink.com 1.10,2013-08-18 03:57:00,
2013-08-17 21:06:00,55.4,54.0,30.05,ESE,103,0.0,-999.0,95,-99.99,,,0.00,weatherlink.com 1.10,2013-08-18 04:06:00,
2013-08-17 21:21:00,55.3,54.0,30.05,ESE,103,0.0,-999.0,95,-99.99,,,0.00,weatherlink.com 1.10,2013-08-18 04:21:00,
2013-08-17 21:36:00,54.2,53.0,30.05,ESE,103,0.0,-999.0,95,-99.99,,,0.00,weatherlink.com 1.10,2013-08-18 04:36:00,
2013-08-17 21:58:00,53.8,53.0,30.05,ESE,103,0.0,-999.0,96,-99.99,,,0.00,weatherlink.com 1.10,2013-08-18 04:58:00,
2013-08-17 22:07:00,54.2,53.0,30.05,ESE,103,0.0,-999.0,96,-99.99,,,0.00,weatherlink.com 1.10,2013-08-18 05:07:00,
2013-08-17 22:22:00,54.3,54.0,30.06,ESE,103,0.0,-999.0,97,-99.99,,,0.00,weatherlink.com 1.10,2013-08-18 05:22:00,
2013-08-17 22:37:00,54.5,54.0,30.05,ESE,103,0.0,-999.0,97,-99.99,,,0.00,weatherlink.com 1.10,2013-08-18 05:37:00,
2013-08-17 22:58:00,54.4,54.0,30.05,ESE,103,0.0,-999.0,97,-99.99,,,0.00,weatherlink.com 1.10,2013-08-18 05:58:00,
2013-08-17 23:07:00,54.6,54.0,30.05,ESE,103,0.0,-999.0,96,-99.99,,,0.00,weatherlink.com 1.10,2013-08-18 06:07:00,
2013-08-17 23:22:00,53.9,53.0,30.06,ESE,103,0.0,-999.0,97,-99.99,,,0.00,weatherlink.com 1.10,2013-08-18 06:22:00,
2013-08-17 23:37:00,56.0,56.0,30.06,ESE,103,2.0,-999.0,98,-99.99,,,0.00,weatherlink.com 1.10,2013-08-18 06:37:00,
2013-08-17 23:54:00,54.4,54.0,30.06,ESE,103,0.0,-999.0,97,-99.99,,,0.00,weatherlink.com 1.10,2013-08-18 06:54:00,